createdAt,value
2019-05-03T00:01:38.754Z,99694.56
2019-05-03T00:04:25.278Z,99690.82
2019-05-03T00:07:11.947Z,99688.78
2019-05-03T00:09:57.874Z,99688.87
2019-05-03T00:12:44.021Z,99687.37
2019-05-03T00:15:53.310Z,99695.34
2019-05-03T00:18:39.618Z,99689.22
2019-05-03T00:21:25.485Z,99689.17
2019-05-03T00:24:11.926Z,99692.82
2019-05-03T00:26:59.035Z,99693.82
2019-05-03T00:29:44.926Z,99694.42
2019-05-03T00:32:32.367Z,99694.61
2019-05-03T00:35:25.110Z,99693.94
2019-05-03T00:38:13.712Z,99696.31
2019-05-03T00:41:01.833Z,99695.34
2019-05-03T00:43:47.842Z,99692.22
2019-05-03T00:46:33.715Z,99692.22
2019-05-03T00:49:20.233Z,99679.66
2019-05-03T00:52:06.384Z,99689.31
2019-05-03T00:54:52.979Z,99697.36
2019-05-03T00:57:41.499Z,99695.34
2019-05-03T01:00:27.678Z,99687.12
2019-05-03T01:03:13.863Z,99685.78
2019-05-03T01:06:02.300Z,99682.22
2019-05-03T01:08:48.915Z,99677.08
2019-05-03T01:11:35.219Z,99685.91
2019-05-03T01:14:22.581Z,99682.97
2019-05-03T01:17:08.643Z,99684.41
2019-05-03T01:19:55.061Z,99687.69
2019-05-03T01:22:42.491Z,99686.30
2019-05-03T01:25:32.584Z,99684.77
2019-05-03T01:28:16.814Z,99692.94
2019-05-03T01:31:03.662Z,99696.58
2019-05-03T01:33:51.560Z,99697.61
2019-05-03T01:36:37.459Z,99706.09
2019-05-03T01:39:23.487Z,99711.09
2019-05-03T01:42:09.555Z,99705.45
2019-05-03T01:44:55.642Z,99704.92
2019-05-03T01:47:49.335Z,99706.71
2019-05-03T01:51:02.837Z,99708.02
2019-05-03T01:53:49.627Z,99709.55
2019-05-03T01:56:35.892Z,99717.44
2019-05-03T01:59:22.688Z,99711.28
2019-05-03T02:02:37.964Z,99711.58
2019-05-03T02:05:43.943Z,99709.45
2019-05-03T02:08:30.320Z,99714.41
2019-05-03T02:11:16.635Z,99714.97
2019-05-03T02:14:03.496Z,99716.38
2019-05-03T02:16:50.039Z,99718.33
2019-05-03T02:19:36.863Z,99721.60
2019-05-03T02:22:22.655Z,99725.98
2019-05-03T02:25:08.971Z,99727.42
2019-05-03T02:27:56.492Z,99730.95
2019-05-03T02:30:44.184Z,99726.56
2019-05-03T02:33:32.701Z,99733.64
2019-05-03T02:36:19.677Z,99730.78
2019-05-03T02:39:07.610Z,99734.80
2019-05-03T02:41:59.725Z,99729.51
2019-05-03T02:44:41.144Z,99748.87
2019-05-03T02:47:47.384Z,99744.45
2019-05-03T02:50:36.087Z,99746.01
2019-05-03T02:53:21.590Z,99745.38
2019-05-03T02:56:21.069Z,99744.61
2019-05-03T02:58:56.284Z,99754.10
2019-05-03T03:01:42.938Z,99755.01
2019-05-03T03:04:30.291Z,99757.39
2019-05-03T03:07:17.105Z,99756.56
2019-05-03T03:10:05.292Z,99754.82
2019-05-03T03:12:55.278Z,99763.58
2019-05-03T03:15:42.401Z,99762.35
2019-05-03T03:18:31.479Z,99771.87
2019-05-03T03:21:22.468Z,99764.16
2019-05-03T03:24:12.570Z,99770.83
2019-05-03T03:26:58.613Z,99774.32
2019-05-03T03:29:49.686Z,99768.88
2019-05-03T03:32:38.591Z,99768.88
2019-05-03T03:35:29.669Z,99770.05
2019-05-03T03:38:15.531Z,99769.30
2019-05-03T03:41:05.845Z,99772.03
2019-05-03T03:43:55.755Z,99773.88
2019-05-03T03:46:45.394Z,99776.22
2019-05-03T03:49:31.530Z,99778.32
2019-05-03T03:52:19.737Z,99786.89
2019-05-03T03:55:06.545Z,99782.19
2019-05-03T03:57:55.477Z,99782.55
2019-05-03T04:00:41.397Z,99783.38
2019-05-03T04:03:27.268Z,99785.94
2019-05-03T04:06:15.444Z,99790.27
2019-05-03T04:09:02.381Z,99800.21
2019-05-03T04:11:48.615Z,99802.66
2019-05-03T04:14:45.285Z,99804.36
2019-05-03T04:17:56.838Z,99804.53
2019-05-03T04:20:45.819Z,99813.26
2019-05-03T04:23:32.120Z,99813.22
2019-05-03T04:26:18.096Z,99819.06
2019-05-03T04:29:05.392Z,99820.12
2019-05-03T04:31:52.060Z,99827.86
2019-05-03T04:34:38.298Z,99832.08
2019-05-03T04:37:26.702Z,99835.85
2019-05-03T04:40:15.650Z,99837.25
2019-05-03T04:43:02.058Z,99847.97
2019-05-03T04:46:08.405Z,99851.31
2019-05-03T04:48:56.209Z,99843.97
2019-05-03T04:51:46.256Z,99847.83
2019-05-03T04:54:59.270Z,99851.76
2019-05-03T04:57:50.080Z,99850.16
2019-05-03T05:00:35.812Z,99854.70
2019-05-03T05:03:22.385Z,99860.63
2019-05-03T05:06:08.196Z,99862.25
2019-05-03T05:08:55.181Z,99865.69
2019-05-03T05:11:41.727Z,99872.45
2019-05-03T05:14:28.020Z,99866.83
2019-05-03T05:17:18.002Z,99876.82
2019-05-03T05:20:18.043Z,99877.23
2019-05-03T05:23:04.599Z,99877.84
2019-05-03T05:25:57.253Z,99892.33
2019-05-03T05:28:50.918Z,99890.19
2019-05-03T05:31:37.233Z,99902.19
2019-05-03T05:34:24.548Z,99904.36
2019-05-03T05:37:11.011Z,99903.55
2019-05-03T05:39:57.305Z,99907.61
2019-05-03T05:42:45.386Z,99902.67
2019-05-03T05:45:38.533Z,99912.51
2019-05-03T05:48:37.777Z,99906.23
2019-05-03T05:51:24.876Z,99914.00
2019-05-03T05:54:14.349Z,99913.45
2019-05-03T05:57:11.047Z,99919.85
2019-05-03T06:00:00.285Z,99921.70
2019-05-03T06:02:46.211Z,99919.00
2019-05-03T06:05:32.781Z,99921.14
2019-05-03T06:08:27.109Z,99920.05
2019-05-03T06:11:34.613Z,99917.09
2019-05-03T06:14:24.765Z,99922.84
2019-05-03T06:17:29.001Z,99925.67
2019-05-03T06:20:34.958Z,99930.75
2019-05-03T06:23:27.938Z,99932.75
2019-05-03T06:26:34.700Z,99935.95
2019-05-03T06:29:20.821Z,99930.41
2019-05-03T06:32:16.140Z,99934.81
2019-05-03T06:35:02.233Z,99937.72
2019-05-03T06:37:48.223Z,99935.23
2019-05-03T06:40:35.422Z,99936.37
2019-05-03T06:43:21.549Z,99939.08
2019-05-03T06:46:07.753Z,99939.30
2019-05-03T06:48:54.350Z,99934.34
2019-05-03T06:51:45.654Z,99935.88
2019-05-03T06:54:29.969Z,99936.53
2019-05-03T06:57:18.097Z,99931.00
2019-05-03T07:00:17.611Z,99934.39
2019-05-03T07:03:15.179Z,99935.42
2019-05-03T07:06:32.630Z,99936.88
2019-05-03T07:09:29.825Z,99933.08
2019-05-03T07:12:15.546Z,99937.33
2019-05-03T07:15:01.536Z,99939.16
2019-05-03T07:17:47.876Z,99944.09
2019-05-03T07:20:46.453Z,99945.05
2019-05-03T07:23:32.349Z,99939.47
2019-05-03T07:26:18.095Z,99943.72
2019-05-03T07:29:04.966Z,99939.80
2019-05-03T07:31:54.753Z,99936.18
2019-05-03T07:34:40.318Z,99946.48
2019-05-03T07:37:26.008Z,99946.84
2019-05-03T07:40:14.853Z,99939.17
2019-05-03T07:43:00.822Z,99938.03
2019-05-03T07:45:48.080Z,99936.34
2019-05-03T07:48:35.430Z,99937.03
2019-05-03T07:51:21.619Z,99937.63
2019-05-03T07:54:07.842Z,99942.02
2019-05-03T07:56:59.150Z,99932.61
2019-05-03T07:59:45.540Z,99933.47
2019-05-03T08:02:35.817Z,99935.28
2019-05-03T08:05:21.747Z,99934.63
2019-05-03T08:08:07.802Z,99935.55
2019-05-03T08:10:54.988Z,99939.66
2019-05-03T08:13:41.155Z,99938.50
2019-05-03T08:16:27.688Z,99942.09
2019-05-03T08:19:15.182Z,99940.34
2019-05-03T08:22:01.026Z,99943.84
2019-05-03T08:24:47.726Z,99935.25
2019-05-03T08:27:35.397Z,99936.48
2019-05-03T08:30:28.638Z,99937.30
2019-05-03T08:33:28.959Z,99938.41
2019-05-03T08:36:15.682Z,99941.47
2019-05-03T08:39:01.877Z,99940.70
2019-05-03T08:41:57.044Z,99943.73
2019-05-03T08:44:42.883Z,99945.88
2019-05-03T08:47:30.158Z,99946.84
2019-05-03T08:50:21.418Z,99944.88
2019-05-03T08:53:06.104Z,99948.35
2019-05-03T08:55:55.401Z,99944.85
2019-05-03T08:58:41.674Z,99950.67
2019-05-03T09:01:28.166Z,99945.66
2019-05-03T09:04:15.396Z,99950.25
2019-05-03T09:07:01.797Z,99948.03
2019-05-03T09:10:19.831Z,99947.41
2019-05-03T09:13:07.029Z,99942.75
2019-05-03T09:15:55.089Z,99944.42
2019-05-03T09:18:41.542Z,99947.79
2019-05-03T09:21:27.593Z,99943.11
2019-05-03T09:24:15.189Z,99945.11
2019-05-03T09:27:01.987Z,99942.78
2019-05-03T09:29:47.695Z,99937.34
2019-05-03T09:32:35.020Z,99941.66
2019-05-03T09:35:30.566Z,99936.39
2019-05-03T09:38:20.895Z,99941.60
2019-05-03T09:41:15.030Z,99946.84
2019-05-03T09:44:00.827Z,99944.04
2019-05-03T09:46:47.378Z,99938.33
2019-05-03T09:49:34.907Z,99937.59
2019-05-03T09:52:21.123Z,99934.84
2019-05-03T09:55:11.719Z,99937.47
2019-05-03T09:57:57.911Z,99930.50
2019-05-03T10:00:44.622Z,99937.28
2019-05-03T10:03:31.368Z,99933.97
2019-05-03T10:06:17.859Z,99934.78
2019-05-03T10:09:05.377Z,99927.31
2019-05-03T10:11:51.303Z,99924.58
2019-05-03T10:14:37.459Z,99916.84
2019-05-03T10:17:42.869Z,99927.70
2019-05-03T10:20:28.828Z,99925.55
2019-05-03T10:23:35.570Z,99916.48
2019-05-03T10:26:21.494Z,99919.14
2019-05-03T10:29:09.514Z,99916.42
2019-05-03T10:32:11.285Z,99906.34
2019-05-03T10:35:00.886Z,99896.19
2019-05-03T10:37:46.946Z,99902.77
2019-05-03T10:40:35.581Z,99897.52
2019-05-03T10:43:21.393Z,99902.29
2019-05-03T10:46:07.072Z,99904.75
2019-05-03T10:48:55.817Z,99902.34
2019-05-03T10:51:46.831Z,99909.81
2019-05-03T10:54:32.526Z,99908.09
2019-05-03T10:57:20.396Z,99909.33
2019-05-03T11:00:38.675Z,99906.40
2019-05-03T11:03:02.002Z,99907.70
2019-05-03T11:05:48.657Z,99904.41
2019-05-03T11:08:34.874Z,99906.32
2019-05-03T11:11:20.815Z,99903.19
2019-05-03T11:14:07.218Z,99903.50
2019-05-03T11:16:55.274Z,99896.16
2019-05-03T11:19:45.421Z,99907.77
2019-05-03T11:22:31.734Z,99897.51
2019-05-03T11:25:18.259Z,99894.09
2019-05-03T11:28:12.519Z,99886.21
2019-05-03T11:31:18.163Z,99889.38
2019-05-03T11:34:07.363Z,99900.70
2019-05-03T11:37:14.540Z,99899.51
2019-05-03T11:40:01.424Z,99898.09
2019-05-03T11:42:48.086Z,99902.19
2019-05-03T11:45:35.325Z,99905.96
2019-05-03T11:48:21.597Z,99906.53
2019-05-03T11:51:07.992Z,99909.05
2019-05-03T11:53:54.539Z,99907.50
2019-05-03T11:56:40.433Z,99909.20
2019-05-03T11:59:40.435Z,99905.84
2019-05-03T12:02:52.134Z,99900.64
2019-05-03T12:05:39.682Z,99897.50
2019-05-03T12:08:25.892Z,99895.56
2019-05-03T12:11:11.979Z,99896.04
2019-05-03T12:14:10.913Z,99888.31
2019-05-03T12:17:18.233Z,99887.01
2019-05-03T12:19:56.672Z,99884.11
2019-05-03T12:22:41.834Z,99880.09
2019-05-03T12:25:29.438Z,99873.86
2019-05-03T12:28:17.021Z,99869.87
2019-05-03T12:31:04.910Z,99871.37
2019-05-03T12:33:51.035Z,99872.77
2019-05-03T12:36:39.159Z,99867.71
2019-05-03T12:39:30.149Z,99866.72
2019-05-03T12:42:18.925Z,99865.67
2019-05-03T12:45:05.494Z,99868.92
2019-05-03T12:47:51.967Z,99876.25
2019-05-03T12:50:38.993Z,99875.36
2019-05-03T12:53:25.315Z,99868.31
2019-05-03T12:56:13.928Z,99868.92
2019-05-03T12:59:16.599Z,99862.66
2019-05-03T13:02:15.522Z,99855.25
2019-05-03T13:05:01.746Z,99848.20
2019-05-03T13:08:08.011Z,99849.94
2019-05-03T13:10:55.703Z,99848.27
2019-05-03T13:13:45.214Z,99851.52
2019-05-03T13:16:32.318Z,99847.72
2019-05-03T13:19:20.222Z,99840.62
2019-05-03T13:22:06.895Z,99834.95
2019-05-03T13:24:54.571Z,99834.44
2019-05-03T13:27:41.038Z,99835.32
2019-05-03T13:30:27.119Z,99827.11
2019-05-03T13:33:15.116Z,99820.84
2019-05-03T13:36:01.044Z,99824.40
2019-05-03T13:38:47.239Z,99819.59
2019-05-03T13:41:34.961Z,99815.69
2019-05-03T13:44:21.114Z,99813.53
2019-05-03T13:47:06.772Z,99815.17
2019-05-03T13:49:55.161Z,99822.86
2019-05-03T13:52:41.632Z,99808.45
2019-05-03T13:55:28.016Z,99806.55
2019-05-03T13:58:15.416Z,99810.83
2019-05-03T14:01:01.421Z,99807.76
2019-05-03T14:03:47.844Z,99807.08
2019-05-03T14:06:36.528Z,99806.16
2019-05-03T14:09:21.965Z,99804.89
2019-05-03T14:12:08.468Z,99802.39
2019-05-03T14:14:56.086Z,99805.09
2019-05-03T14:17:42.592Z,99798.11
2019-05-03T14:20:47.119Z,99802.47
2019-05-03T14:23:53.285Z,99799.52
2019-05-03T14:26:41.092Z,99797.88
2019-05-03T14:29:28.340Z,99788.89
2019-05-03T14:32:25.726Z,99799.53
2019-05-03T14:35:17.229Z,99784.16
2019-05-03T14:38:05.739Z,99786.45
2019-05-03T14:40:50.964Z,99790.70
2019-05-03T14:43:37.511Z,99783.08
2019-05-03T14:46:32.827Z,99779.83
2019-05-03T14:49:14.707Z,99782.24
2019-05-03T14:52:00.904Z,99777.98
2019-05-03T14:54:49.312Z,99773.00
2019-05-03T14:57:44.471Z,99779.11
2019-05-03T15:00:42.489Z,99771.17
2019-05-03T15:03:28.823Z,99769.15
2019-05-03T15:06:15.511Z,99760.98
2019-05-03T15:09:02.104Z,99760.54
2019-05-03T15:11:48.381Z,99756.17
2019-05-03T15:14:34.628Z,99750.09
2019-05-03T15:17:21.376Z,99762.20
2019-05-03T15:20:08.109Z,99760.17
2019-05-03T15:22:54.847Z,99760.61
2019-05-03T15:25:40.921Z,99758.41
2019-05-03T15:28:27.122Z,99756.83
2019-05-03T15:31:13.692Z,99753.17
2019-05-03T15:33:59.358Z,99749.49
2019-05-03T15:36:46.733Z,99750.58
2019-05-03T15:39:32.392Z,99751.77
2019-05-03T15:42:19.424Z,99750.78
2019-05-03T15:45:41.377Z,99748.84
2019-05-03T15:48:35.504Z,99743.14
2019-05-03T15:51:21.349Z,99744.97
2019-05-03T15:54:07.344Z,99740.86
2019-05-03T15:56:54.385Z,99739.81
2019-05-03T15:59:40.448Z,99732.89
2019-05-03T16:02:26.261Z,99736.55
2019-05-03T16:05:15.438Z,99731.98
2019-05-03T16:08:01.838Z,99732.13
2019-05-03T16:10:47.803Z,99731.38
2019-05-03T16:13:35.278Z,99736.86
2019-05-03T16:16:22.204Z,99728.21
2019-05-03T16:19:08.340Z,99732.98
2019-05-03T16:21:54.592Z,99724.66
2019-05-03T16:24:40.731Z,99720.17
2019-05-03T16:27:47.329Z,99722.45
2019-05-03T16:30:51.116Z,99719.72
2019-05-03T16:33:36.964Z,99718.41
2019-05-03T16:36:24.897Z,99715.34
2019-05-03T16:39:15.395Z,99717.69
2019-05-03T16:42:01.341Z,99714.37
2019-05-03T16:44:47.945Z,99722.87
2019-05-03T16:47:35.482Z,99724.64
2019-05-03T16:50:21.874Z,99725.41
2019-05-03T16:53:08.377Z,99730.55
2019-05-03T16:55:57.765Z,99731.02
2019-05-03T16:58:44.683Z,99725.04
2019-05-03T17:01:32.509Z,99721.13
2019-05-03T17:04:55.670Z,99728.09
2019-05-03T17:08:04.613Z,99725.86
2019-05-03T17:10:51.365Z,99731.22
2019-05-03T17:13:37.958Z,99729.83
2019-05-03T17:16:24.916Z,99727.36
2019-05-03T17:19:11.578Z,99730.69
2019-05-03T17:21:58.033Z,99726.80
2019-05-03T17:24:45.981Z,99735.23
2019-05-03T17:27:31.924Z,99733.33
2019-05-03T17:30:17.979Z,99728.48
2019-05-03T17:33:04.540Z,99726.66
2019-05-03T17:35:54.378Z,99718.95
2019-05-03T17:38:41.470Z,99722.39
2019-05-03T17:41:54.664Z,99722.28
2019-05-03T17:44:42.325Z,99723.72
2019-05-03T17:47:28.522Z,99725.16
2019-05-03T17:50:14.836Z,99728.55
2019-05-03T17:53:25.211Z,99718.44
2019-05-03T17:56:16.076Z,99719.84
2019-05-03T17:59:24.421Z,99710.45
2019-05-03T18:02:42.289Z,99716.55
2019-05-03T18:05:37.817Z,99711.52
2019-05-03T18:08:52.565Z,99709.13
2019-05-03T18:11:42.226Z,99710.00
2019-05-03T18:16:52.020Z,99713.42
2019-05-03T18:19:38.054Z,99713.95
2019-05-03T18:22:24.361Z,99712.49
2019-05-03T18:25:10.507Z,99719.71
2019-05-03T18:27:58.042Z,99719.84
2019-05-03T18:30:45.460Z,99718.51
2019-05-03T18:33:31.614Z,99714.55
2019-05-03T18:36:18.090Z,99716.77
2019-05-03T18:39:06.839Z,99722.42
2019-05-03T18:41:54.402Z,99716.01
2019-05-03T18:44:50.402Z,99714.19
2019-05-03T18:47:36.361Z,99721.57
2019-05-03T18:50:21.741Z,99711.09
2019-05-03T18:53:11.231Z,99720.63
2019-05-03T18:55:58.174Z,99721.62
2019-05-03T18:58:44.864Z,99721.26
2019-05-03T19:01:32.301Z,99721.09
2019-05-03T19:04:34.850Z,99723.12
2019-05-03T19:07:38.735Z,99726.56
2019-05-03T19:10:37.474Z,99722.44
2019-05-03T19:13:30.339Z,99719.62
2019-05-03T19:16:28.139Z,99721.64
2019-05-03T19:19:15.568Z,99725.59
2019-05-03T19:22:01.667Z,99726.33
2019-05-03T19:24:47.522Z,99727.55
2019-05-03T19:27:34.613Z,99731.17
2019-05-03T19:30:21.209Z,99732.98
2019-05-03T19:33:06.851Z,99726.30
2019-05-03T19:35:52.390Z,99729.91
2019-05-03T19:38:38.891Z,99729.44
2019-05-03T19:41:25.208Z,99725.34
2019-05-03T19:44:10.847Z,99724.17
2019-05-03T19:46:56.797Z,99729.20
2019-05-03T19:49:42.551Z,99729.28
2019-05-03T19:52:34.323Z,99724.77
2019-05-03T19:55:20.837Z,99722.13
2019-05-03T19:58:06.363Z,99722.41
2019-05-03T20:01:07.486Z,99721.64
2019-05-03T20:03:58.085Z,99725.28
2019-05-03T20:06:57.010Z,99727.66
2019-05-03T20:09:44.562Z,99722.06
2019-05-03T20:12:30.371Z,99730.84
2019-05-03T20:15:16.131Z,99727.33
2019-05-03T20:18:01.949Z,99730.22
2019-05-03T20:20:47.351Z,99722.40
2019-05-03T20:23:34.319Z,99729.55
2019-05-03T20:26:20.461Z,99722.23
2019-05-03T20:29:06.196Z,99727.66
2019-05-03T20:31:52.606Z,99716.77
2019-05-03T20:34:38.950Z,99713.31
2019-05-03T20:37:25.143Z,99712.58
2019-05-03T20:40:12.170Z,99713.54
2019-05-03T20:43:11.027Z,99706.33
2019-05-03T20:46:05.028Z,99714.13
2019-05-03T20:48:52.435Z,99712.83
2019-05-03T20:51:38.299Z,99710.92
2019-05-03T20:54:24.671Z,99713.38
2019-05-03T20:57:10.382Z,99711.20
2019-05-03T20:59:56.419Z,99711.44
2019-05-03T21:02:51.606Z,99710.75
2019-05-03T21:05:34.745Z,99711.41
2019-05-03T21:08:20.958Z,99711.42
2019-05-03T21:11:07.386Z,99717.76
2019-05-03T21:13:53.459Z,99707.80
2019-05-03T21:16:57.087Z,99711.93
2019-05-03T21:19:55.174Z,99715.33
2019-05-03T21:22:44.310Z,99711.86
2019-05-03T21:26:02.734Z,99716.02
2019-05-03T21:28:25.162Z,99704.63
2019-05-03T21:31:10.989Z,99701.18
2019-05-03T21:33:56.892Z,99700.03
2019-05-03T21:36:42.276Z,99703.14
2019-05-03T21:39:29.280Z,99701.91
2019-05-03T21:42:20.526Z,99706.16
2019-05-03T21:45:07.554Z,99689.83
2019-05-03T21:47:58.865Z,99695.80
2019-05-03T21:50:44.810Z,99688.02
2019-05-03T21:53:30.716Z,99693.98
2019-05-03T21:56:16.408Z,99691.98
2019-05-03T21:59:02.139Z,99689.40
2019-05-03T22:01:48.765Z,99691.46
2019-05-03T22:04:35.185Z,99693.27
2019-05-03T22:07:21.508Z,99700.73
2019-05-03T22:10:07.186Z,99694.17
2019-05-03T22:12:54.446Z,99694.64
2019-05-03T22:15:48.301Z,99693.52
2019-05-03T22:18:35.063Z,99694.41
2019-05-03T22:21:41.672Z,99691.49
2019-05-03T22:24:35.372Z,99696.27
2019-05-03T22:27:21.539Z,99696.70
2019-05-03T22:30:07.832Z,99698.89
2019-05-03T22:32:54.878Z,99694.61
2019-05-03T22:35:40.412Z,99692.84
2019-05-03T22:38:26.164Z,99689.83
2019-05-03T22:41:11.863Z,99694.18
2019-05-03T22:43:57.663Z,99696.36
2019-05-03T22:46:44.598Z,99689.94
2019-05-03T22:49:30.555Z,99682.69
2019-05-03T22:52:15.936Z,99679.66
2019-05-03T22:55:02.371Z,99678.41
2019-05-03T22:57:47.853Z,99680.11
2019-05-03T23:00:35.273Z,99674.09
2019-05-03T23:03:21.160Z,99682.66
2019-05-03T23:06:19.325Z,99683.53
2019-05-03T23:08:56.018Z,99676.27
2019-05-03T23:11:41.791Z,99677.56
2019-05-03T23:14:28.509Z,99674.15
2019-05-03T23:17:14.914Z,99675.43
2019-05-03T23:20:07.357Z,99666.44
2019-05-03T23:22:54.744Z,99661.31
2019-05-03T23:25:40.593Z,99663.42
2019-05-03T23:28:26.867Z,99657.00
2019-05-03T23:31:14.560Z,99656.59
2019-05-03T23:34:02.301Z,99652.70
2019-05-03T23:36:48.336Z,99652.31
2019-05-03T23:39:33.810Z,99652.28
2019-05-03T23:42:19.663Z,99648.48
2019-05-03T23:45:05.498Z,99648.05
2019-05-03T23:47:51.093Z,99651.02
2019-05-03T23:50:36.934Z,99637.73
2019-05-03T23:53:22.737Z,99640.73
2019-05-03T23:56:17.082Z,99644.16
2019-05-03T23:59:03.089Z,99639.02
